Time;durP1;ratioP1;P1;durP2;ratioP2;P2;SDS_P1;SDS_P2;PMS_P1;PMS_P2;Temp;Humidity;BMP_temperature;BMP_pressure;BME280_temperature;BME280_humidity;BME280_pressure;Samples;Min_cycle;Max_cycle;Signal;HPM_P1;HPM_P2
2020/12/22 00:01:06;;;;;;;19.08;6.22;;;;;;;6.43;86.28;100657.88;5048612;28;20067;-78
2020/12/22 00:03:32;;;;;;;16.38;5.50;;;;;;;6.43;86.04;100655.16;5044111;28;20094;-78
2020/12/22 00:05:57;;;;;;;17.85;7.38;;;;;;;6.43;86.10;100624.56;5026782;28;20045;-78
2020/12/22 00:08:22;;;;;;;22.58;7.07;;;;;;;6.43;85.90;100646.22;5043637;28;20029;-78
2020/12/22 00:10:48;;;;;;;21.00;8.73;;;;;;;6.41;85.84;100622.13;5047048;28;20438;-78
2020/12/22 00:13:13;;;;;;;16.83;6.88;;;;;;;6.42;85.78;100628.34;5048534;28;20021;-78
2020/12/22 00:15:38;;;;;;;18.48;7.03;;;;;;;6.40;85.58;100622.38;5046182;28;20406;-78
2020/12/22 00:18:04;;;;;;;14.00;7.40;;;;;;;6.36;85.74;100608.53;5024666;28;20032;-77
2020/12/22 00:20:29;;;;;;;19.55;5.78;;;;;;;6.34;85.52;100610.66;5053424;28;20033;-78
2020/12/22 00:22:55;;;;;;;16.55;6.38;;;;;;;6.33;85.56;100602.75;5050157;28;20017;-78
2020/12/22 00:25:20;;;;;;;20.35;6.57;;;;;;;6.30;85.70;100587.03;5048984;28;20021;-78
2020/12/22 00:27:45;;;;;;;23.67;6.47;;;;;;;6.27;85.35;100593.75;5050348;28;20082;-78
2020/12/22 00:30:11;;;;;;;17.83;5.53;;;;;;;6.25;85.39;100595.06;5050190;28;20033;-78
2020/12/22 00:32:36;;;;;;;18.52;6.32;;;;;;;6.24;85.45;100586.13;5047744;28;20025;-78
2020/12/22 00:35:02;;;;;;;21.30;6.65;;;;;;;6.23;85.42;100588.03;5051515;28;20054;-78
2020/12/22 00:37:28;;;;;;;18.40;7.55;;;;;;;6.21;85.48;100546.84;5050487;28;20032;-78
2020/12/22 00:39:53;;;;;;;21.60;5.72;;;;;;;6.18;85.08;100549.25;5053151;28;20045;-79
2020/12/22 00:42:18;;;;;;;15.13;5.65;;;;;;;6.14;85.73;100546.22;5051907;28;20498;-78
2020/12/22 00:44:44;;;;;;;21.05;6.75;;;;;;;6.13;85.59;100550.00;5052472;28;20039;-78
2020/12/22 00:47:11;;;;;;;12.38;5.30;;;;;;;6.12;85.57;100526.72;5035322;28;20035;-78
2020/12/22 00:49:36;;;;;;;15.20;5.38;;;;;;;6.12;85.25;100537.53;5053730;28;20028;-79
2020/12/22 00:52:02;;;;;;;8.82;5.13;;;;;;;6.13;85.17;100522.94;5051318;28;20024;-79
2020/12/22 00:54:27;;;;;;;13.25;5.45;;;;;;;6.15;85.32;100528.09;5057148;28;20029;-78
2020/12/22 00:56:53;;;;;;;24.23;6.80;;;;;;;6.15;85.36;100526.22;5048798;28;20025;-78
2020/12/22 00:59:18;;;;;;;12.32;5.75;;;;;;;6.15;85.55;100518.09;5044510;28;20029;-79
2020/12/22 01:01:44;;;;;;;11.48;5.72;;;;;;;6.17;85.42;100515.94;5047322;28;20017;-78
2020/12/22 01:04:09;;;;;;;12.18;4.97;;;;;;;6.19;85.16;100511.13;5050025;28;20048;-78
2020/12/22 01:06:38;;;;;;;19.35;7.22;;;;;;;6.16;85.15;100511.59;5052125;28;20067;-78
2020/12/22 01:09:04;;;;;;;12.95;6.22;;;;;;;6.15;85.17;100493.72;5050187;28;20064;-78
2020/12/22 01:11:39;;;;;;;22.05;6.00;;;;;;;6.14;85.31;100500.22;5050306;28;20055;-79
2020/12/22 01:14:05;;;;;;;14.48;6.80;;;;;;;6.11;85.23;100476.38;5066812;28;20029;-77
2020/12/22 01:16:30;;;;;;;17.05;5.65;;;;;;;6.12;85.17;100482.59;5060540;28;20044;-77
2020/12/22 01:18:56;;;;;;;14.85;5.70;;;;;;;6.10;85.23;100477.41;5050981;28;20024;-78
2020/12/22 01:21:21;;;;;;;19.83;7.32;;;;;;;6.08;85.10;100471.44;5049981;28;20021;-77
2020/12/22 01:23:47;;;;;;;12.55;5.57;;;;;;;6.07;85.27;100469.81;5046617;28;20031;-77
2020/12/22 01:26:12;;;;;;;13.40;5.10;;;;;;;6.08;85.45;100474.13;5045982;28;20099;-77
2020/12/22 01:28:38;;;;;;;12.07;4.63;;;;;;;6.06;85.29;100468.19;5052093;28;20040;-77
2020/12/22 01:31:04;;;;;;;14.07;5.07;;;;;;;6.06;85.16;100461.97;5048850;28;20025;-78
2020/12/22 01:33:29;;;;;;;15.38;5.25;;;;;;;6.06;85.29;100446.53;5052528;28;20098;-77
2020/12/22 01:35:55;;;;;;;14.50;5.50;;;;;;;6.05;85.01;100439.47;5051168;28;20032;-78
2020/12/22 01:38:20;;;;;;;10.82;4.35;;;;;;;6.05;85.26;100442.16;5052022;28;20142;-78
2020/12/22 01:40:49;;;;;;;14.85;5.38;;;;;;;6.05;85.17;100431.34;5049862;28;20041;-78
2020/12/22 01:43:15;;;;;;;19.23;5.32;;;;;;;6.05;85.27;100436.75;5050326;28;20032;-77
2020/12/22 01:45:40;;;;;;;11.80;4.93;;;;;;;6.03;84.97;100425.38;5050797;28;20056;-78
2020/12/22 01:48:05;;;;;;;15.77;5.53;;;;;;;6.02;85.52;100429.16;5052223;28;20078;-78
2020/12/22 01:50:31;;;;;;;14.68;4.57;;;;;;;6.01;85.13;100419.41;5050639;28;20029;-78
2020/12/22 01:52:56;;;;;;;11.25;5.32;;;;;;;6.00;85.20;100409.63;5047409;28;20599;-78
2020/12/22 01:55:22;;;;;;;14.10;5.53;;;;;;;5.99;85.12;100414.25;5047372;28;20086;-78
2020/12/22 01:57:47;;;;;;;15.50;5.32;;;;;;;6.00;85.18;100421.31;5048171;28;20660;-78
2020/12/22 02:00:13;;;;;;;16.33;4.50;;;;;;;6.02;85.23;100429.16;5050831;28;20386;-78
2020/12/22 02:02:40;;;;;;;14.65;4.15;;;;;;;6.04;85.38;100426.22;5047965;28;20044;-78
2020/12/22 02:05:05;;;;;;;8.13;3.90;;;;;;;6.05;85.03;100412.41;5040208;28;20029;-78
2020/12/22 02:07:31;;;;;;;12.38;4.55;;;;;;;6.07;84.99;100407.56;5048396;28;20493;-78
2020/12/22 02:09:56;;;;;;;14.90;4.55;;;;;;;6.08;84.94;100411.09;5048911;28;20101;-77
2020/12/22 02:12:22;;;;;;;21.67;5.28;;;;;;;6.08;84.90;100395.66;5050188;28;20029;-78
2020/12/22 02:14:47;;;;;;;9.88;4.15;;;;;;;6.09;84.79;100391.91;5049485;28;20036;-78
2020/12/22 02:17:13;;;;;;;12.48;4.18;;;;;;;6.10;84.92;100385.41;5051607;28;20037;-78
2020/12/22 02:19:38;;;;;;;17.45;5.40;;;;;;;6.11;84.66;100351.03;5046365;28;20029;-78
2020/12/22 02:22:04;;;;;;;13.90;4.57;;;;;;;6.10;84.65;100350.22;5047518;28;20467;-78
2020/12/22 02:24:33;;;;;;;15.38;5.13;;;;;;;6.10;84.86;100350.22;5051675;28;20123;-78
2020/12/22 02:27:00;;;;;;;7.95;4.25;;;;;;;6.12;84.87;100320.22;5049994;28;20033;-78
2020/12/22 02:29:26;;;;;;;8.50;3.90;;;;;;;6.12;84.71;100318.31;5050810;28;20059;-78
2020/12/22 02:31:51;;;;;;;10.43;3.85;;;;;;;6.14;84.72;100332.41;5049940;28;20052;-78
2020/12/22 02:34:17;;;;;;;10.65;4.32;;;;;;;6.13;84.71;100328.06;5049928;28;20025;-78
2020/12/22 02:36:42;;;;;;;18.15;4.40;;;;;;;6.14;84.43;100324.31;5044508;28;20378;-78
2020/12/22 02:39:08;;;;;;;11.20;4.47;;;;;;;6.14;84.71;100321.59;5051902;28;20454;-78
2020/12/22 02:41:33;;;;;;;15.07;4.63;;;;;;;6.13;84.52;100295.59;5049594;28;20059;-78
2020/12/22 02:43:58;;;;;;;11.38;3.80;;;;;;;6.14;84.62;100304.53;5050744;28;20052;-79
2020/12/22 02:46:24;;;;;;;10.15;4.05;;;;;;;6.14;84.64;100289.13;5051028;28;20040;-78
2020/12/22 02:48:49;;;;;;;16.15;4.13;;;;;;;6.13;84.41;100287.47;5049712;28;20106;-78
2020/12/22 02:51:15;;;;;;;11.13;4.82;;;;;;;6.13;84.36;100279.34;5049218;28;20056;-78
2020/12/22 02:53:40;;;;;;;14.02;4.07;;;;;;;6.12;84.35;100266.09;5045960;28;20483;-78
2020/12/22 02:56:05;;;;;;;11.95;4.72;;;;;;;6.11;84.60;100265.28;5050433;28;20021;-78
2020/12/22 02:58:31;;;;;;;12.48;4.57;;;;;;;6.11;84.44;100267.97;5049277;28;20021;-78
2020/12/22 03:00:56;;;;;;;14.20;4.43;;;;;;;6.12;84.61;100260.69;5046194;28;20383;-78
2020/12/22 03:03:22;;;;;;;10.68;4.43;;;;;;;6.11;84.42;100251.75;5045585;28;20031;-77
2020/12/22 03:05:47;;;;;;;9.75;3.88;;;;;;;6.09;84.48;100244.97;5047723;28;20025;-77
2020/12/22 03:08:12;;;;;;;14.88;4.50;;;;;;;6.08;84.51;100241.41;5048197;28;20032;-77
2020/12/22 03:10:39;;;;;;;12.57;4.63;;;;;;;6.07;84.45;100234.38;5051710;28;20074;-77
2020/12/22 03:13:05;;;;;;;9.10;4.63;;;;;;;6.04;84.45;100215.94;5046809;28;20108;-77
2020/12/22 03:15:30;;;;;;;12.32;4.22;;;;;;;6.04;84.79;100215.94;5050830;28;20036;-77
2020/12/22 03:17:55;;;;;;;10.50;4.15;;;;;;;6.02;84.68;100212.69;5047513;28;20482;-77
2020/12/22 03:20:21;;;;;;;12.82;5.22;;;;;;;6.00;84.41;100206.69;5049300;28;20029;-77
2020/12/22 03:22:46;;;;;;;11.27;4.45;;;;;;;5.98;84.88;100189.94;5045648;28;20033;-77
2020/12/22 03:25:12;;;;;;;15.98;5.78;;;;;;;5.98;84.54;100181.81;5050568;28;20033;-77
2020/12/22 03:27:38;;;;;;;10.80;4.40;;;;;;;5.94;84.93;100178.78;5049583;28;20029;-77
2020/12/22 03:30:05;;;;;;;15.70;5.00;;;;;;;5.93;84.95;100188.00;5029819;28;20033;-77
2020/12/22 03:32:30;;;;;;;11.60;4.55;;;;;;;5.92;84.86;100171.97;5048280;28;20120;-77
2020/12/22 03:34:56;;;;;;;12.82;5.25;;;;;;;5.91;84.70;100164.94;5050788;28;20033;-77
2020/12/22 03:37:21;;;;;;;10.00;4.43;;;;;;;5.90;84.95;100166.03;5050335;28;20032;-77
2020/12/22 03:39:50;;;;;;;9.65;4.20;;;;;;;5.89;84.97;100148.97;5048415;28;20081;-76
2020/12/22 03:42:17;;;;;;;15.50;5.55;;;;;;;5.89;85.05;100153.56;5047493;28;20067;-76
2020/12/22 03:44:43;;;;;;;10.77;4.38;;;;;;;5.87;85.09;100139.50;5048828;28;20025;-78
2020/12/22 03:47:09;;;;;;;11.75;4.72;;;;;;;5.87;84.97;100140.31;5048690;28;20063;-78
2020/12/22 03:49:34;;;;;;;12.88;4.68;;;;;;;5.85;85.04;100133.53;5049025;28;20056;-78
2020/12/22 03:51:59;;;;;;;9.20;4.60;;;;;;;5.85;85.25;100125.41;5047026;28;20036;-79
2020/12/22 03:54:25;;;;;;;12.27;5.13;;;;;;;5.83;85.36;100127.53;5045065;28;20038;-79
2020/12/22 03:56:50;;;;;;;11.05;4.82;;;;;;;5.82;85.28;100125.94;5050146;28;20484;-78
2020/12/22 03:59:16;;;;;;;11.43;4.53;;;;;;;5.78;85.43;100121.03;5050168;28;20040;-78
2020/12/22 04:01:41;;;;;;;14.23;4.88;;;;;;;5.77;85.48;100103.16;5054625;28;20021;-77
2020/12/22 04:04:07;;;;;;;8.82;5.32;;;;;;;5.75;85.60;100110.72;5049588;28;20029;-77
2020/12/22 04:06:32;;;;;;;12.02;5.47;;;;;;;5.73;85.75;100106.66;5051390;28;21650;-78
2020/12/22 04:08:57;;;;;;;12.40;5.65;;;;;;;5.72;85.79;100103.13;5051532;28;20033;-76
2020/12/22 04:11:23;;;;;;;12.75;5.25;;;;;;;5.71;85.83;100087.97;5052192;28;20037;-76
2020/12/22 04:13:48;;;;;;;10.05;5.20;;;;;;;5.71;85.85;100103.38;5048429;28;20031;-76
2020/12/22 04:16:14;;;;;;;12.52;5.57;;;;;;;5.69;85.89;100090.13;5086016;28;20527;-76
2020/12/22 04:18:39;;;;;;;17.15;6.22;;;;;;;5.69;85.97;100087.41;5050407;28;20432;-75
2020/12/22 04:21:04;;;;;;;9.75;5.50;;;;;;;5.69;86.16;100079.28;5052422;28;20082;-76
2020/12/22 04:23:30;;;;;;;12.20;5.68;;;;;;;5.67;86.27;100064.41;5053159;28;20033;-75
2020/12/22 04:25:55;;;;;;;11.05;4.95;;;;;;;5.66;86.52;100062.78;5083906;28;20496;-75
2020/12/22 04:28:21;;;;;;;16.35;5.65;;;;;;;5.66;86.22;100060.88;5049458;28;20032;-76
2020/12/22 04:30:47;;;;;;;13.95;5.88;;;;;;;5.67;86.58;100057.09;5051254;28;20029;-75
2020/12/22 04:33:13;;;;;;;10.95;5.30;;;;;;;5.67;86.46;100048.16;5050958;28;20032;-76
2020/12/22 04:35:39;;;;;;;12.57;5.95;;;;;;;5.67;86.52;100040.88;5052089;28;20094;-76
2020/12/22 04:38:04;;;;;;;13.43;5.65;;;;;;;5.69;86.55;100040.63;5039960;28;20029;-76
2020/12/22 04:40:33;;;;;;;13.07;5.95;;;;;;;5.68;86.50;100029.00;5051642;28;20044;-75
2020/12/22 04:42:59;;;;;;;10.30;4.95;;;;;;;5.68;86.52;100023.59;5051732;28;20025;-75
2020/12/22 04:45:26;;;;;;;11.85;5.28;;;;;;;5.67;86.74;100016.53;5050246;28;20536;-75
2020/12/22 04:47:51;;;;;;;11.32;5.40;;;;;;;5.67;86.79;100002.22;5048800;28;20394;-76
2020/12/22 04:50:17;;;;;;;11.38;5.47;;;;;;;5.66;86.80;99998.69;5051857;28;20053;-76
2020/12/22 04:52:43;;;;;;;13.68;6.38;;;;;;;5.66;86.91;99989.78;5048838;28;20029;-76
2020/12/22 04:55:10;;;;;;;14.88;5.80;;;;;;;5.65;86.99;99980.84;5035312;28;20033;-75
2020/12/22 04:57:35;;;;;;;9.90;5.47;;;;;;;5.65;87.06;99980.84;5044461;28;20021;-75
2020/12/22 05:00:02;;;;;;;16.52;5.45;;;;;;;5.66;86.98;99978.94;5031586;28;20032;-76
2020/12/22 05:02:28;;;;;;;15.55;6.63;;;;;;;5.67;87.18;99973.28;5042429;28;20033;-76
2020/12/22 05:04:53;;;;;;;14.48;6.35;;;;;;;5.66;87.33;99950.03;5047406;28;20429;-76
2020/12/22 05:07:19;;;;;;;10.75;5.78;;;;;;;5.67;87.41;99972.47;5048442;28;20489;-75
2020/12/22 05:09:45;;;;;;;9.90;6.30;;;;;;;5.67;87.32;99967.06;5043776;28;20024;-75
2020/12/22 05:12:11;;;;;;;9.95;5.75;;;;;;;5.68;87.39;99953.28;5032024;28;20070;-75
2020/12/22 05:14:36;;;;;;;16.63;6.53;;;;;;;5.69;87.74;99943.28;5046912;28;20033;-75
2020/12/22 05:17:01;;;;;;;15.20;6.30;;;;;;;5.69;87.48;99948.69;5032677;28;20304;-76
2020/12/22 05:19:36;;;;;;;16.80;6.85;;;;;;;5.70;87.50;99937.63;5047257;28;20020;-76
2020/12/22 05:22:06;;;;;;;13.77;6.22;;;;;;;5.70;87.69;99940.31;5047992;28;20116;-75
2020/12/22 05:24:33;;;;;;;15.85;7.18;;;;;;;5.71;87.78;99936.53;5047953;28;20033;-75
2020/12/22 05:26:59;;;;;;;14.45;6.70;;;;;;;5.74;87.66;99927.88;5034715;28;20033;-77
2020/12/22 05:29:24;;;;;;;13.10;6.50;;;;;;;5.74;88.12;99922.47;5046250;28;20048;-78
2020/12/22 05:31:50;;;;;;;12.18;6.57;;;;;;;5.75;88.04;99921.38;5046216;28;20600;-78
2020/12/22 05:34:17;;;;;;;16.65;7.55;;;;;;;5.76;88.04;99917.63;5050356;28;20032;-77
2020/12/22 05:36:43;;;;;;;12.73;7.03;;;;;;;5.76;87.80;99901.41;5049039;28;20056;-77
2020/12/22 05:39:10;;;;;;;14.48;7.40;;;;;;;5.77;87.97;99908.44;5029050;28;20033;-77
2020/12/22 05:41:35;;;;;;;15.10;6.82;;;;;;;5.79;88.00;99906.28;5021350;28;20042;-78
2020/12/22 05:44:01;;;;;;;13.95;6.05;;;;;;;5.79;87.95;99900.88;5021987;28;20160;-76
2020/12/22 05:46:28;;;;;;;16.60;6.97;;;;;;;5.81;88.18;99897.06;5025216;28;20037;-77
2020/12/22 05:48:59;;;;;;;16.35;7.93;;;;;;;5.82;88.04;99899.53;5028231;28;20091;-76
2020/12/22 05:51:24;;;;;;;17.67;7.82;;;;;;;5.84;88.31;99888.44;5061511;28;20029;-78
2020/12/22 05:53:50;;;;;;;12.55;6.18;;;;;;;5.84;88.22;99893.84;5011601;28;20036;-78
2020/12/22 05:56:18;;;;;;;13.32;6.20;;;;;;;5.83;88.18;99882.22;5009220;28;20040;-78
2020/12/22 05:58:44;;;;;;;13.77;6.20;;;;;;;5.84;88.35;99880.31;5027363;28;20029;-78
2020/12/22 06:01:12;;;;;;;10.85;4.80;;;;;;;5.84;88.60;99885.72;5010467;28;20083;-77
2020/12/22 06:03:38;;;;;;;16.23;5.53;;;;;;;5.84;88.67;99874.91;5028047;28;20176;-78
2020/12/22 06:06:05;;;;;;;13.25;4.78;;;;;;;5.82;88.73;99858.16;5044134;28;20482;-79
2020/12/22 06:08:31;;;;;;;12.35;4.32;;;;;;;5.80;88.75;99863.81;5009537;28;20112;-78
2020/12/22 06:10:56;;;;;;;14.13;4.45;;;;;;;5.79;88.90;99862.19;5017470;28;20032;-78
2020/12/22 06:13:21;;;;;;;11.82;4.30;;;;;;;5.76;88.79;99831.09;5004758;28;20509;-78
2020/12/22 06:15:47;;;;;;;8.13;3.33;;;;;;;5.75;88.77;99840.25;5026663;28;20025;-78
2020/12/22 06:18:12;;;;;;;9.35;3.60;;;;;;;5.74;88.97;99860.28;5026455;28;20040;-78
2020/12/22 06:20:38;;;;;;;11.50;3.67;;;;;;;5.73;88.57;99842.44;5025904;28;20072;-75
2020/12/22 06:23:05;;;;;;;9.57;3.55;;;;;;;5.75;88.85;99845.66;5025932;28;20029;-76
2020/12/22 06:25:30;;;;;;;8.63;4.57;;;;;;;5.76;88.93;99825.69;5026893;28;20044;-76
2020/12/22 06:27:56;;;;;;;9.43;4.25;;;;;;;5.76;88.93;99831.09;5015455;28;20485;-76
2020/12/22 06:30:38;;;;;;;8.48;3.28;;;;;;;5.78;88.80;99822.69;5026387;28;20091;-75
2020/12/22 06:33:26;;;;;;;7.18;3.70;;;;;;;5.78;88.72;99823.53;5025856;28;20109;-76
2020/12/22 06:36:13;;;;;;;6.22;3.40;;;;;;;5.78;88.76;99828.94;5005668;28;20025;-75
2020/12/22 06:38:54;;;;;;;12.73;4.03;;;;;;;5.80;88.76;99831.38;5021331;28;20029;-77
2020/12/22 06:41:35;;;;;;;9.57;3.40;;;;;;;5.79;88.85;99835.16;5047142;28;20037;-76
2020/12/22 06:44:27;;;;;;;5.35;2.92;;;;;;;5.76;88.65;99808.66;5041861;28;20043;-77
2020/12/22 06:46:58;;;;;;;7.32;3.35;;;;;;;5.72;88.74;99802.94;5043916;28;20504;-77
2020/12/22 06:49:46;;;;;;;7.20;3.00;;;;;;;5.71;88.89;99798.63;5045993;28;20025;-76
2020/12/22 06:52:30;;;;;;;12.85;3.25;;;;;;;5.71;88.88;99784.28;5042872;28;20045;-76
2020/12/22 06:54:56;;;;;;;6.38;2.83;;;;;;;5.71;88.93;99790.50;5046254;28;20025;-75
2020/12/22 06:57:44;;;;;;;8.45;2.97;;;;;;;5.70;88.84;99786.19;5046883;28;20035;-76
2020/12/22 07:00:22;;;;;;;6.57;2.40;;;;;;;5.71;88.57;99770.78;5056437;28;20474;-76
2020/12/22 07:02:47;;;;;;;6.43;2.05;;;;;;;5.70;88.76;99783.47;5044188;28;20104;-75
2020/12/22 07:05:15;;;;;;;6.20;2.90;;;;;;;5.71;88.83;99776.97;5046063;28;20112;-76
2020/12/22 07:07:59;;;;;;;5.78;2.67;;;;;;;5.71;89.04;99768.88;5034096;28;20489;-76
2020/12/22 07:10:28;;;;;;;12.52;3.13;;;;;;;5.72;88.90;99778.59;5041822;28;20378;-76
2020/12/22 07:12:56;;;;;;;8.40;1.95;;;;;;;5.72;88.63;99762.38;5055178;28;20538;-76
2020/12/22 07:15:21;;;;;;;7.18;2.13;;;;;;;5.73;88.75;99774.03;5040177;28;20040;-76
2020/12/22 07:17:47;;;;;;;9.10;2.78;;;;;;;5.74;88.92;99768.34;5050230;28;20020;-76
2020/12/22 07:20:12;;;;;;;7.45;2.00;;;;;;;5.75;88.87;99748.31;5043508;28;20040;-77
2020/12/22 07:22:37;;;;;;;6.47;2.40;;;;;;;5.76;88.58;99754.56;5041460;28;20033;-78
2020/12/22 07:25:04;;;;;;;4.05;2.08;;;;;;;5.76;88.87;99754.56;5045767;28;20025;-77
2020/12/22 07:27:31;;;;;;;8.05;2.30;;;;;;;5.76;88.76;99747.25;5047831;28;20031;-77
2020/12/22 07:29:56;;;;;;;3.20;1.70;;;;;;;5.74;88.95;99741.28;5030549;28;20025;-77
2020/12/22 07:32:22;;;;;;;6.43;2.00;;;;;;;5.76;88.85;99730.22;5030293;28;20028;-76
2020/12/22 07:34:48;;;;;;;5.28;2.42;;;;;;;5.75;88.73;99742.91;5029587;28;20048;-76
2020/12/22 07:37:14;;;;;;;5.88;2.53;;;;;;;5.77;88.99;99739.94;5042337;28;20040;-76
2020/12/22 07:39:39;;;;;;;5.45;2.50;;;;;;;5.78;89.21;99741.56;5044024;28;20037;-76
2020/12/22 07:42:14;;;;;;;4.32;2.25;;;;;;;5.82;89.09;99728.34;5051478;28;20045;-78
2020/12/22 07:44:41;;;;;;;6.28;2.42;;;;;;;5.82;88.94;99721.03;5051219;28;20018;-76
2020/12/22 07:47:07;;;;;;;5.13;2.50;;;;;;;5.85;89.02;99730.50;5050883;28;20032;-77
2020/12/22 07:49:33;;;;;;;5.22;2.30;;;;;;;5.84;88.98;99718.03;5048797;28;20033;-76
2020/12/22 07:51:58;;;;;;;5.65;2.90;;;;;;;5.85;89.09;99725.09;5050760;28;20029;-76
2020/12/22 07:54:27;;;;;;;6.90;2.63;;;;;;;5.86;88.94;99713.97;5043294;28;20028;-77
2020/12/22 07:56:56;;;;;;;5.53;2.50;;;;;;;5.87;89.18;99712.13;5043601;28;20044;-77
2020/12/22 07:59:21;;;;;;;4.57;2.45;;;;;;;5.87;89.15;99704.81;5044076;28;20037;-77
2020/12/22 08:01:47;;;;;;;8.73;2.30;;;;;;;5.87;89.28;99704.81;5048353;28;20032;-78
2020/12/22 08:04:34;;;;;;;4.45;2.70;;;;;;;5.89;89.06;99704.53;5081510;28;20025;-77
2020/12/22 08:06:59;;;;;;;6.10;2.70;;;;;;;5.89;89.08;99696.41;5063935;28;20555;-77
2020/12/22 08:09:35;;;;;;;6.97;3.30;;;;;;;5.88;88.99;99709.13;5045427;28;20040;-76
2020/12/22 08:12:02;;;;;;;4.55;1.98;;;;;;;5.89;89.27;99704.53;5049133;28;20056;-76
2020/12/22 08:14:28;;;;;;;6.15;2.63;;;;;;;5.89;89.23;99707.22;5045120;28;20051;-76
2020/12/22 08:17:00;;;;;;;6.55;2.35;;;;;;;5.89;89.10;99689.13;5041349;28;20659;-76
2020/12/22 08:19:44;;;;;;;2.90;2.17;;;;;;;5.91;89.20;99699.66;5064454;28;20028;-76
2020/12/22 08:22:13;;;;;;;5.07;2.50;;;;;;;5.92;89.26;99698.56;5057895;28;20056;-76
2020/12/22 08:24:38;;;;;;;6.38;2.88;;;;;;;5.92;89.46;99685.88;5052141;28;20036;-76
2020/12/22 08:27:04;;;;;;;4.75;2.50;;;;;;;5.92;89.43;99685.88;5051162;28;20024;-76
2020/12/22 08:29:29;;;;;;;4.68;2.63;;;;;;;5.94;89.37;99682.91;5049023;28;20486;-75
2020/12/22 08:31:58;;;;;;;4.45;2.35;;;;;;;5.94;89.42;99691.84;5052520;28;20040;-76
2020/12/22 08:34:24;;;;;;;4.00;2.45;;;;;;;5.94;89.54;99691.03;5044649;28;20060;-77
2020/12/22 08:36:50;;;;;;;5.82;2.45;;;;;;;5.95;89.45;99687.28;5032762;28;20387;-77
2020/12/22 08:39:19;;;;;;;4.43;2.53;;;;;;;5.95;89.63;99681.84;5051020;28;20028;-76
2020/12/22 08:41:46;;;;;;;5.82;2.67;;;;;;;5.96;89.70;99691.59;5051691;28;20028;-76
2020/12/22 08:44:12;;;;;;;5.18;2.75;;;;;;;5.97;89.82;99680.50;5066953;28;20433;-76
2020/12/22 08:46:38;;;;;;;6.00;2.28;;;;;;;5.98;89.66;99671.31;5032014;28;20096;-75
2020/12/22 08:49:11;;;;;;;7.00;2.55;;;;;;;6.00;89.70;99687.25;5050802;28;20410;-75
2020/12/22 08:51:37;;;;;;;5.63;2.25;;;;;;;5.99;89.58;99672.91;5046015;28;20509;-76
2020/12/22 08:54:02;;;;;;;6.57;2.65;;;;;;;6.01;89.65;99659.13;5049527;28;20032;-76
2020/12/22 08:56:28;;;;;;;5.80;2.33;;;;;;;6.02;89.76;99665.34;5050326;28;20032;-76
2020/12/22 08:58:55;;;;;;;5.82;2.40;;;;;;;6.02;89.69;99676.16;5049917;28;20024;-76
2020/12/22 09:01:21;;;;;;;5.60;2.72;;;;;;;6.03;89.72;99667.78;5051066;28;20029;-76
2020/12/22 09:03:57;;;;;;;4.93;2.20;;;;;;;6.03;90.08;99662.38;5045535;28;20071;-76
2020/12/22 09:06:32;;;;;;;2.97;1.63;;;;;;;6.01;89.79;99659.13;5048954;28;20560;-76
2020/12/22 09:08:58;;;;;;;6.07;2.25;;;;;;;6.01;89.83;99667.25;5041984;28;21141;-76
2020/12/22 09:11:24;;;;;;;5.10;1.90;;;;;;;6.01;89.91;99675.34;5037528;28;20415;-76
2020/12/22 09:14:00;;;;;;;9.30;1.90;;;;;;;6.00;90.16;99668.31;5041044;28;20033;-76
2020/12/22 09:16:25;;;;;;;4.68;1.90;;;;;;;5.97;90.11;99663.44;5040042;28;20048;-76
2020/12/22 09:19:04;;;;;;;6.25;2.17;;;;;;;5.97;90.36;99663.44;5041980;28;20486;-76
2020/12/22 09:21:29;;;;;;;6.35;2.38;;;;;;;5.95;90.32;99679.16;5041645;28;20031;-81
2020/12/22 09:23:54;;;;;;;3.65;2.30;;;;;;;5.94;90.40;99667.50;5046524;28;20374;-77
2020/12/22 09:26:20;;;;;;;5.28;2.30;;;;;;;5.92;90.62;99664.25;5048067;28;20028;-75
2020/12/22 09:28:45;;;;;;;5.00;2.03;;;;;;;5.91;90.65;99662.59;5044269;28;20029;-75
2020/12/22 09:31:10;;;;;;;5.75;2.08;;;;;;;5.92;90.94;99664.25;5048079;28;20040;-74
2020/12/22 09:33:36;;;;;;;4.53;1.83;;;;;;;5.92;90.83;99663.41;5049828;28;20040;-75
2020/12/22 09:36:01;;;;;;;7.50;2.08;;;;;;;5.93;90.77;99643.41;5049324;28;20025;-74
2020/12/22 09:38:26;;;;;;;3.10;1.90;;;;;;;5.94;90.95;99643.16;5039854;28;20036;-75
2020/12/22 09:40:52;;;;;;;5.55;2.00;;;;;;;5.94;91.05;99631.53;5046643;28;20037;-76
2020/12/22 09:43:17;;;;;;;6.63;2.75;;;;;;;5.94;91.24;99634.22;5044689;28;20032;-77
2020/12/22 09:45:43;;;;;;;8.52;1.90;;;;;;;5.94;91.29;99636.94;5061921;28;20101;-76
2020/12/22 09:48:08;;;;;;;2.63;1.33;;;;;;;5.94;91.29;99645.84;5043161;28;20020;-77
2020/12/22 09:50:33;;;;;;;3.08;1.15;;;;;;;5.95;91.19;99641.28;5041572;28;20027;-76
2020/12/22 09:52:59;;;;;;;3.17;1.23;;;;;;;5.94;91.63;99647.75;5045133;28;20029;-76
2020/12/22 09:55:24;;;;;;;3.63;1.40;;;;;;;5.93;91.73;99655.06;5047031;28;20970;-77
2020/12/22 09:57:50;;;;;;;4.60;1.70;;;;;;;5.93;91.65;99640.72;5048467;28;20025;-76
2020/12/22 10:00:15;;;;;;;4.35;1.48;;;;;;;5.94;91.81;99632.34;5047399;28;20037;-77
2020/12/22 10:02:41;;;;;;;2.17;1.30;;;;;;;5.95;91.66;99638.56;5025439;28;20029;-77
2020/12/22 10:05:07;;;;;;;2.25;0.93;;;;;;;5.95;91.88;99644.78;5045317;28;20516;-76
2020/12/22 10:07:32;;;;;;;4.63;1.10;;;;;;;5.97;91.76;99642.63;5046541;28;20081;-77
2020/12/22 10:09:57;;;;;;;1.92;0.80;;;;;;;5.97;92.01;99630.97;5043954;28;20028;-77
2020/12/22 10:12:23;;;;;;;4.75;1.40;;;;;;;5.96;92.06;99630.19;5046273;28;20017;-76
2020/12/22 10:14:48;;;;;;;5.28;0.90;;;;;;;5.97;92.28;99630.97;5045863;28;20099;-77
2020/12/22 10:17:14;;;;;;;5.28;1.05;;;;;;;5.99;92.10;99618.00;5049106;28;20083;-76
2020/12/22 10:19:39;;;;;;;4.72;1.02;;;;;;;6.01;92.21;99621.25;5046507;28;20039;-76
2020/12/22 10:22:04;;;;;;;4.90;1.10;;;;;;;6.04;92.15;99620.72;5046472;28;20021;-78
2020/12/22 10:24:30;;;;;;;3.78;1.30;;;;;;;6.05;92.20;99622.31;5045177;28;20470;-77
2020/12/22 10:26:55;;;;;;;2.45;1.15;;;;;;;6.05;92.54;99614.19;5048939;28;20030;-77
2020/12/22 10:29:20;;;;;;;2.40;1.17;;;;;;;6.07;92.46;99613.94;5046994;28;20505;-78
2020/12/22 10:31:46;;;;;;;8.07;1.08;;;;;;;6.08;92.43;99602.81;5044839;28;20033;-77
2020/12/22 10:34:11;;;;;;;3.53;1.02;;;;;;;6.09;92.40;99601.75;5062779;28;20389;-77
2020/12/22 10:36:37;;;;;;;3.95;0.73;;;;;;;6.09;92.59;99612.59;5041448;28;20029;-77
2020/12/22 10:39:02;;;;;;;2.40;0.73;;;;;;;6.09;92.59;99620.69;5039293;28;20132;-78
2020/12/22 10:41:27;;;;;;;2.63;0.65;;;;;;;6.10;92.61;99614.19;5038708;28;20037;-77
2020/12/22 10:43:53;;;;;;;1.85;0.70;;;;;;;6.10;92.68;99614.19;5040047;28;20040;-77
2020/12/22 10:46:18;;;;;;;8.95;1.67;;;;;;;6.11;92.84;99615.84;5043429;28;20474;-77
2020/12/22 10:48:44;;;;;;;2.10;0.80;;;;;;;6.13;92.84;99619.06;5073409;28;20547;-77
2020/12/22 10:51:09;;;;;;;6.82;1.50;;;;;;;6.13;92.92;99612.84;5046085;28;20021;-77
2020/12/22 10:53:35;;;;;;;2.50;1.05;;;;;;;6.14;92.97;99615.28;5044154;28;20086;-77
2020/12/22 10:56:02;;;;;;;3.50;1.13;;;;;;;6.15;93.08;99611.47;5041612;28;20037;-77
2020/12/22 10:58:28;;;;;;;6.22;0.85;;;;;;;6.18;92.94;99610.13;5041902;28;20505;-77
2020/12/22 11:00:53;;;;;;;2.50;0.98;;;;;;;6.20;93.14;99597.16;5046014;28;20030;-77
2020/12/22 11:03:20;;;;;;;1.88;0.77;;;;;;;6.23;93.04;99593.88;5041923;28;20043;-78
2020/12/22 11:06:10;;;;;;;2.45;1.17;;;;;;;6.26;93.36;99595.22;5048562;28;20073;-77
2020/12/22 11:08:38;;;;;;;3.17;0.60;;;;;;;6.29;93.08;99605.50;5043165;28;20059;-77
2020/12/22 11:11:04;;;;;;;4.20;1.20;;;;;;;6.31;93.20;99597.94;5046910;28;20028;-76
2020/12/22 11:13:30;;;;;;;3.20;1.20;;;;;;;6.33;93.35;99607.41;5041530;28;20116;-76
2020/12/22 11:15:55;;;;;;;8.80;1.48;;;;;;;6.34;93.50;99600.88;5044998;28;20032;-76
2020/12/22 11:18:20;;;;;;;2.40;1.67;;;;;;;6.35;93.62;99599.78;5043150;28;20040;-76
2020/12/22 11:20:46;;;;;;;7.38;1.40;;;;;;;6.37;93.57;99604.94;5044718;28;20044;-77
2020/12/22 11:23:11;;;;;;;1.10;0.85;;;;;;;6.41;93.49;99593.31;5047123;28;20028;-76
2020/12/22 11:25:36;;;;;;;8.93;1.98;;;;;;;6.44;93.53;99600.06;5041973;28;20032;-77
2020/12/22 11:28:02;;;;;;;3.72;1.10;;;;;;;6.47;93.71;99607.63;5042615;28;20040;-77
2020/12/22 11:30:27;;;;;;;4.60;2.15;;;;;;;6.48;93.71;99603.84;5041711;28;20518;-75
2020/12/22 11:32:53;;;;;;;3.15;1.35;;;;;;;6.50;93.53;99598.97;5050538;28;20025;-76